sensor_id;sensor_type;location;lat;lon;timestamp;P1;durP1;ratioP1;P2;durP2;ratioP2
69900;SDS011;57183;50.930;5.406;2023-02-01T00:01:10;21.10;;;7.68;;
69900;SDS011;57183;50.930;5.406;2023-02-01T00:03:35;13.70;;;7.38;;
69900;SDS011;57183;50.930;5.406;2023-02-01T00:06:02;26.27;;;7.20;;
69900;SDS011;57183;50.930;5.406;2023-02-01T00:08:28;20.55;;;8.55;;
69900;SDS011;57183;50.930;5.406;2023-02-01T00:11:01;15.50;;;7.82;;
69900;SDS011;57183;50.930;5.406;2023-02-01T00:13:32;23.48;;;8.85;;
69900;SDS011;57183;50.930;5.406;2023-02-01T00:16:05;17.80;;;9.40;;
69900;SDS011;57183;50.930;5.406;2023-02-01T00:18:32;21.77;;;9.77;;
69900;SDS011;57183;50.930;5.406;2023-02-01T00:20:58;21.70;;;9.93;;
69900;SDS011;57183;50.930;5.406;2023-02-01T00:23:24;27.10;;;9.73;;
69900;SDS011;57183;50.930;5.406;2023-02-01T00:25:50;19.92;;;9.02;;
69900;SDS011;57183;50.930;5.406;2023-02-01T00:28:16;20.17;;;10.43;;
69900;SDS011;57183;50.930;5.406;2023-02-01T00:30:42;23.58;;;10.55;;
69900;SDS011;57183;50.930;5.406;2023-02-01T00:33:07;18.60;;;10.07;;
69900;SDS011;57183;50.930;5.406;2023-02-01T00:35:34;25.92;;;11.63;;
69900;SDS011;57183;50.930;5.406;2023-02-01T00:38:00;22.77;;;10.15;;
69900;SDS011;57183;50.930;5.406;2023-02-01T00:40:26;23.25;;;11.23;;
69900;SDS011;57183;50.930;5.406;2023-02-01T00:42:52;26.05;;;11.35;;
69900;SDS011;57183;50.930;5.406;2023-02-01T00:45:18;21.35;;;11.32;;
69900;SDS011;57183;50.930;5.406;2023-02-01T00:47:44;33.25;;;11.02;;
69900;SDS011;57183;50.930;5.406;2023-02-01T00:50:10;25.05;;;11.55;;
69900;SDS011;57183;50.930;5.406;2023-02-01T00:52:36;20.25;;;10.90;;
69900;SDS011;57183;50.930;5.406;2023-02-01T00:55:01;21.85;;;10.77;;
69900;SDS011;57183;50.930;5.406;2023-02-01T00:57:27;24.65;;;11.10;;
69900;SDS011;57183;50.930;5.406;2023-02-01T00:59:53;19.80;;;9.25;;
69900;SDS011;57183;50.930;5.406;2023-02-01T01:02:19;20.23;;;10.60;;
69900;SDS011;57183;50.930;5.406;2023-02-01T01:04:44;21.58;;;11.38;;
69900;SDS011;57183;50.930;5.406;2023-02-01T01:07:10;29.05;;;10.90;;
69900;SDS011;57183;50.930;5.406;2023-02-01T01:09:36;24.88;;;10.05;;
69900;SDS011;57183;50.930;5.406;2023-02-01T01:12:02;25.02;;;10.80;;
69900;SDS011;57183;50.930;5.406;2023-02-01T01:14:31;24.15;;;10.15;;
69900;SDS011;57183;50.930;5.406;2023-02-01T01:16:57;18.40;;;9.15;;
69900;SDS011;57183;50.930;5.406;2023-02-01T01:19:23;21.25;;;10.18;;
69900;SDS011;57183;50.930;5.406;2023-02-01T01:21:48;21.08;;;9.70;;
69900;SDS011;57183;50.930;5.406;2023-02-01T01:24:14;25.63;;;10.25;;
69900;SDS011;57183;50.930;5.406;2023-02-01T01:26:40;24.48;;;10.20;;
69900;SDS011;57183;50.930;5.406;2023-02-01T01:29:06;22.48;;;10.25;;
69900;SDS011;57183;50.930;5.406;2023-02-01T01:31:34;19.40;;;10.05;;
69900;SDS011;57183;50.930;5.406;2023-02-01T01:33:59;24.75;;;9.40;;
69900;SDS011;57183;50.930;5.406;2023-02-01T01:36:26;23.38;;;9.55;;
69900;SDS011;57183;50.930;5.406;2023-02-01T01:38:52;19.90;;;9.65;;
69900;SDS011;57183;50.930;5.406;2023-02-01T01:41:19;26.42;;;9.95;;
69900;SDS011;57183;50.930;5.406;2023-02-01T01:43:57;27.17;;;9.35;;
69900;SDS011;57183;50.930;5.406;2023-02-01T01:46:29;24.60;;;11.02;;
69900;SDS011;57183;50.930;5.406;2023-02-01T01:51:47;21.40;;;9.88;;
69900;SDS011;57183;50.930;5.406;2023-02-01T01:54:17;26.42;;;10.75;;
69900;SDS011;57183;50.930;5.406;2023-02-01T01:56:47;21.88;;;10.88;;
69900;SDS011;57183;50.930;5.406;2023-02-01T01:59:19;34.60;;;10.90;;
69900;SDS011;57183;50.930;5.406;2023-02-01T02:01:46;26.38;;;10.05;;
69900;SDS011;57183;50.930;5.406;2023-02-01T02:04:12;39.78;;;11.02;;
69900;SDS011;57183;50.930;5.406;2023-02-01T02:06:40;24.58;;;10.38;;
69900;SDS011;57183;50.930;5.406;2023-02-01T02:09:14;24.08;;;11.13;;
69900;SDS011;57183;50.930;5.406;2023-02-01T02:11:41;20.48;;;10.00;;
69900;SDS011;57183;50.930;5.406;2023-02-01T02:14:08;22.02;;;9.85;;
69900;SDS011;57183;50.930;5.406;2023-02-01T02:30:39;22.20;;;9.80;;
69900;SDS011;57183;50.930;5.406;2023-02-01T02:33:30;24.08;;;8.35;;
69900;SDS011;57183;50.930;5.406;2023-02-01T02:36:47;16.08;;;8.48;;
69900;SDS011;57183;50.930;5.406;2023-02-01T02:39:13;22.48;;;7.75;;
69900;SDS011;57183;50.930;5.406;2023-02-01T02:42:00;19.85;;;6.63;;
69900;SDS011;57183;50.930;5.406;2023-02-01T02:45:06;18.20;;;6.57;;
69900;SDS011;57183;50.930;5.406;2023-02-01T02:50:50;16.45;;;5.40;;
69900;SDS011;57183;50.930;5.406;2023-02-01T02:56:51;10.98;;;4.25;;
69900;SDS011;57183;50.930;5.406;2023-02-01T02:59:37;12.13;;;4.07;;
69900;SDS011;57183;50.930;5.406;2023-02-01T03:02:23;13.60;;;3.92;;
69900;SDS011;57183;50.930;5.406;2023-02-01T03:05:11;16.63;;;3.83;;
69900;SDS011;57183;50.930;5.406;2023-02-01T03:10:38;14.93;;;3.70;;
69900;SDS011;57183;50.930;5.406;2023-02-01T03:13:09;16.67;;;3.90;;
69900;SDS011;57183;50.930;5.406;2023-02-01T03:15:41;13.63;;;3.20;;
69900;SDS011;57183;50.930;5.406;2023-02-01T03:18:19;12.27;;;2.72;;
69900;SDS011;57183;50.930;5.406;2023-02-01T03:21:02;12.35;;;2.65;;
69900;SDS011;57183;50.930;5.406;2023-02-01T03:23:33;15.75;;;3.25;;
69900;SDS011;57183;50.930;5.406;2023-02-01T03:26:02;9.95;;;2.35;;
69900;SDS011;57183;50.930;5.406;2023-02-01T03:28:31;11.30;;;2.47;;
69900;SDS011;57183;50.930;5.406;2023-02-01T03:30:59;11.82;;;2.25;;
69900;SDS011;57183;50.930;5.406;2023-02-01T03:33:26;14.63;;;2.78;;
69900;SDS011;57183;50.930;5.406;2023-02-01T03:44:22;14.57;;;2.65;;
69900;SDS011;57183;50.930;5.406;2023-02-01T03:49:45;20.80;;;2.72;;
69900;SDS011;57183;50.930;5.406;2023-02-01T03:52:15;10.85;;;2.17;;
69900;SDS011;57183;50.930;5.406;2023-02-01T03:54:44;18.73;;;2.90;;
69900;SDS011;57183;50.930;5.406;2023-02-01T03:57:13;18.05;;;3.05;;
69900;SDS011;57183;50.930;5.406;2023-02-01T03:59:42;7.05;;;2.33;;
69900;SDS011;57183;50.930;5.406;2023-02-01T04:02:09;16.88;;;3.03;;
69900;SDS011;57183;50.930;5.406;2023-02-01T04:04:35;17.60;;;3.40;;
69900;SDS011;57183;50.930;5.406;2023-02-01T04:07:01;11.32;;;4.57;;
69900;SDS011;57183;50.930;5.406;2023-02-01T04:09:27;23.17;;;2.58;;
69900;SDS011;57183;50.930;5.406;2023-02-01T04:11:53;11.52;;;2.55;;
69900;SDS011;57183;50.930;5.406;2023-02-01T04:14:19;12.60;;;2.65;;
69900;SDS011;57183;50.930;5.406;2023-02-01T04:16:44;10.15;;;2.78;;
69900;SDS011;57183;50.930;5.406;2023-02-01T04:19:10;23.63;;;3.00;;
69900;SDS011;57183;50.930;5.406;2023-02-01T04:21:36;7.47;;;2.13;;
69900;SDS011;57183;50.930;5.406;2023-02-01T04:24:02;13.45;;;2.30;;
69900;SDS011;57183;50.930;5.406;2023-02-01T04:26:28;10.93;;;2.95;;
69900;SDS011;57183;50.930;5.406;2023-02-01T04:28:53;13.65;;;2.83;;
69900;SDS011;57183;50.930;5.406;2023-02-01T04:31:19;13.57;;;2.65;;
69900;SDS011;57183;50.930;5.406;2023-02-01T04:33:51;13.32;;;2.25;;
69900;SDS011;57183;50.930;5.406;2023-02-01T04:36:18;16.80;;;2.72;;
69900;SDS011;57183;50.930;5.406;2023-02-01T04:38:46;12.30;;;3.40;;
69900;SDS011;57183;50.930;5.406;2023-02-01T04:41:12;15.75;;;3.28;;
69900;SDS011;57183;50.930;5.406;2023-02-01T04:43:38;14.27;;;3.63;;
69900;SDS011;57183;50.930;5.406;2023-02-01T04:46:04;10.57;;;2.17;;
69900;SDS011;57183;50.930;5.406;2023-02-01T04:48:29;13.00;;;3.80;;
69900;SDS011;57183;50.930;5.406;2023-02-01T04:50:55;10.98;;;2.53;;
69900;SDS011;57183;50.930;5.406;2023-02-01T04:53:21;12.60;;;2.67;;
69900;SDS011;57183;50.930;5.406;2023-02-01T04:55:47;8.15;;;2.55;;
69900;SDS011;57183;50.930;5.406;2023-02-01T04:58:15;18.80;;;2.80;;
69900;SDS011;57183;50.930;5.406;2023-02-01T05:00:40;10.65;;;2.38;;
69900;SDS011;57183;50.930;5.406;2023-02-01T05:03:06;12.65;;;2.15;;
69900;SDS011;57183;50.930;5.406;2023-02-01T05:05:32;17.38;;;3.25;;
69900;SDS011;57183;50.930;5.406;2023-02-01T05:07:58;17.08;;;2.85;;
69900;SDS011;57183;50.930;5.406;2023-02-01T05:10:24;8.85;;;2.17;;
69900;SDS011;57183;50.930;5.406;2023-02-01T05:12:49;17.45;;;2.80;;
69900;SDS011;57183;50.930;5.406;2023-02-01T05:15:33;20.90;;;2.78;;
69900;SDS011;57183;50.930;5.406;2023-02-01T05:17:59;13.48;;;1.95;;
69900;SDS011;57183;50.930;5.406;2023-02-01T05:20:25;7.57;;;2.15;;
69900;SDS011;57183;50.930;5.406;2023-02-01T05:22:50;14.80;;;2.45;;
69900;SDS011;57183;50.930;5.406;2023-02-01T05:25:16;12.10;;;4.32;;
69900;SDS011;57183;50.930;5.406;2023-02-01T05:27:42;8.70;;;2.28;;
69900;SDS011;57183;50.930;5.406;2023-02-01T05:30:08;18.65;;;3.65;;
69900;SDS011;57183;50.930;5.406;2023-02-01T05:32:34;7.68;;;2.00;;
69900;SDS011;57183;50.930;5.406;2023-02-01T05:35:00;9.30;;;2.25;;
69900;SDS011;57183;50.930;5.406;2023-02-01T05:37:26;18.10;;;2.65;;
69900;SDS011;57183;50.930;5.406;2023-02-01T05:39:52;15.80;;;2.47;;
69900;SDS011;57183;50.930;5.406;2023-02-01T05:42:18;13.93;;;2.47;;
69900;SDS011;57183;50.930;5.406;2023-02-01T05:44:43;13.05;;;2.83;;
69900;SDS011;57183;50.930;5.406;2023-02-01T05:47:09;11.65;;;2.38;;
69900;SDS011;57183;50.930;5.406;2023-02-01T05:49:35;7.82;;;2.17;;
69900;SDS011;57183;50.930;5.406;2023-02-01T05:52:01;14.90;;;3.10;;
69900;SDS011;57183;50.930;5.406;2023-02-01T05:54:27;16.17;;;1.85;;
69900;SDS011;57183;50.930;5.406;2023-02-01T05:56:53;12.77;;;2.22;;
69900;SDS011;57183;50.930;5.406;2023-02-01T05:59:18;11.98;;;3.00;;
69900;SDS011;57183;50.930;5.406;2023-02-01T06:01:44;18.35;;;3.10;;
69900;SDS011;57183;50.930;5.406;2023-02-01T06:04:10;9.10;;;2.78;;
69900;SDS011;57183;50.930;5.406;2023-02-01T06:06:35;17.23;;;4.13;;
69900;SDS011;57183;50.930;5.406;2023-02-01T06:09:02;14.43;;;2.33;;
69900;SDS011;57183;50.930;5.406;2023-02-01T06:11:28;18.23;;;4.03;;
69900;SDS011;57183;50.930;5.406;2023-02-01T06:13:54;13.38;;;3.80;;
69900;SDS011;57183;50.930;5.406;2023-02-01T06:16:20;17.95;;;2.88;;
69900;SDS011;57183;50.930;5.406;2023-02-01T06:18:47;14.57;;;2.97;;
69900;SDS011;57183;50.930;5.406;2023-02-01T06:21:13;7.45;;;2.08;;
69900;SDS011;57183;50.930;5.406;2023-02-01T06:23:48;18.73;;;2.38;;
69900;SDS011;57183;50.930;5.406;2023-02-01T06:26:15;14.25;;;2.70;;
69900;SDS011;57183;50.930;5.406;2023-02-01T06:28:42;12.75;;;2.88;;
69900;SDS011;57183;50.930;5.406;2023-02-01T06:31:07;14.10;;;2.67;;
69900;SDS011;57183;50.930;5.406;2023-02-01T06:33:33;12.27;;;3.05;;
69900;SDS011;57183;50.930;5.406;2023-02-01T06:36:00;10.57;;;2.47;;
69900;SDS011;57183;50.930;5.406;2023-02-01T06:38:28;13.50;;;3.03;;
69900;SDS011;57183;50.930;5.406;2023-02-01T06:40:55;17.38;;;3.65;;
69900;SDS011;57183;50.930;5.406;2023-02-01T06:43:22;12.25;;;2.70;;
69900;SDS011;57183;50.930;5.406;2023-02-01T06:45:49;14.52;;;2.78;;
69900;SDS011;57183;50.930;5.406;2023-02-01T06:48:15;7.57;;;2.15;;
69900;SDS011;57183;50.930;5.406;2023-02-01T06:50:41;16.00;;;3.92;;
69900;SDS011;57183;50.930;5.406;2023-02-01T06:53:07;13.40;;;1.92;;
69900;SDS011;57183;50.930;5.406;2023-02-01T06:55:32;12.98;;;2.90;;
69900;SDS011;57183;50.930;5.406;2023-02-01T06:57:58;11.10;;;2.97;;
69900;SDS011;57183;50.930;5.406;2023-02-01T07:00:24;14.57;;;2.38;;
69900;SDS011;57183;50.930;5.406;2023-02-01T07:02:50;13.68;;;3.45;;
69900;SDS011;57183;50.930;5.406;2023-02-01T07:05:16;15.45;;;2.55;;
69900;SDS011;57183;50.930;5.406;2023-02-01T07:07:42;18.50;;;3.28;;
69900;SDS011;57183;50.930;5.406;2023-02-01T07:10:08;15.75;;;2.17;;
69900;SDS011;57183;50.930;5.406;2023-02-01T07:12:34;15.98;;;3.08;;
69900;SDS011;57183;50.930;5.406;2023-02-01T07:15:00;13.45;;;2.30;;
69900;SDS011;57183;50.930;5.406;2023-02-01T07:17:27;17.92;;;2.90;;
69900;SDS011;57183;50.930;5.406;2023-02-01T07:19:54;11.75;;;3.22;;
69900;SDS011;57183;50.930;5.406;2023-02-01T07:22:21;22.48;;;3.63;;
69900;SDS011;57183;50.930;5.406;2023-02-01T07:24:46;17.15;;;2.70;;
69900;SDS011;57183;50.930;5.406;2023-02-01T07:27:12;16.05;;;3.20;;
69900;SDS011;57183;50.930;5.406;2023-02-01T07:29:38;18.50;;;3.72;;
69900;SDS011;57183;50.930;5.406;2023-02-01T07:32:04;24.25;;;5.43;;
69900;SDS011;57183;50.930;5.406;2023-02-01T07:34:29;16.63;;;3.97;;
69900;SDS011;57183;50.930;5.406;2023-02-01T07:36:55;14.98;;;3.97;;
69900;SDS011;57183;50.930;5.406;2023-02-01T07:39:21;18.27;;;2.75;;
69900;SDS011;57183;50.930;5.406;2023-02-01T07:41:47;14.98;;;2.58;;
69900;SDS011;57183;50.930;5.406;2023-02-01T07:44:13;16.80;;;3.08;;
69900;SDS011;57183;50.930;5.406;2023-02-01T07:46:38;15.73;;;3.70;;
69900;SDS011;57183;50.930;5.406;2023-02-01T07:49:05;15.35;;;2.45;;
69900;SDS011;57183;50.930;5.406;2023-02-01T07:51:31;11.63;;;3.03;;
69900;SDS011;57183;50.930;5.406;2023-02-01T07:53:57;7.65;;;2.83;;
69900;SDS011;57183;50.930;5.406;2023-02-01T07:56:23;17.75;;;2.92;;
69900;SDS011;57183;50.930;5.406;2023-02-01T07:58:51;13.88;;;1.58;;
69900;SDS011;57183;50.930;5.406;2023-02-01T08:01:19;16.92;;;2.80;;
69900;SDS011;57183;50.930;5.406;2023-02-01T08:03:58;8.50;;;1.45;;
69900;SDS011;57183;50.930;5.406;2023-02-01T08:06:27;19.13;;;3.08;;
69900;SDS011;57183;50.930;5.406;2023-02-01T08:08:54;23.83;;;3.28;;
69900;SDS011;57183;50.930;5.406;2023-02-01T08:11:20;24.67;;;2.95;;
69900;SDS011;57183;50.930;5.406;2023-02-01T08:13:47;12.70;;;2.90;;
69900;SDS011;57183;50.930;5.406;2023-02-01T08:16:14;11.88;;;2.58;;
69900;SDS011;57183;50.930;5.406;2023-02-01T08:18:41;17.48;;;3.33;;
69900;SDS011;57183;50.930;5.406;2023-02-01T08:21:08;21.20;;;2.78;;
69900;SDS011;57183;50.930;5.406;2023-02-01T08:23:37;14.13;;;2.08;;
69900;SDS011;57183;50.930;5.406;2023-02-01T08:26:11;19.08;;;3.83;;
69900;SDS011;57183;50.930;5.406;2023-02-01T08:28:45;18.45;;;2.78;;
69900;SDS011;57183;50.930;5.406;2023-02-01T08:31:15;17.65;;;3.17;;
69900;SDS011;57183;50.930;5.406;2023-02-01T08:33:42;11.60;;;2.38;;
69900;SDS011;57183;50.930;5.406;2023-02-01T08:36:08;19.17;;;3.58;;
69900;SDS011;57183;50.930;5.406;2023-02-01T08:38:36;14.32;;;3.85;;
69900;SDS011;57183;50.930;5.406;2023-02-01T08:41:12;12.88;;;2.22;;
69900;SDS011;57183;50.930;5.406;2023-02-01T08:43:40;13.80;;;2.72;;
69900;SDS011;57183;50.930;5.406;2023-02-01T08:46:06;13.57;;;2.75;;
69900;SDS011;57183;50.930;5.406;2023-02-01T08:48:33;21.83;;;4.13;;
69900;SDS011;57183;50.930;5.406;2023-02-01T08:51:04;10.90;;;2.40;;
69900;SDS011;57183;50.930;5.406;2023-02-01T08:53:31;13.20;;;2.47;;
69900;SDS011;57183;50.930;5.406;2023-02-01T08:55:57;13.82;;;2.90;;
69900;SDS011;57183;50.930;5.406;2023-02-01T08:58:23;13.57;;;2.50;;
69900;SDS011;57183;50.930;5.406;2023-02-01T09:00:49;17.27;;;3.00;;
69900;SDS011;57183;50.930;5.406;2023-02-01T09:03:15;15.27;;;2.92;;
69900;SDS011;57183;50.930;5.406;2023-02-01T09:05:41;20.48;;;3.67;;
69900;SDS011;57183;50.930;5.406;2023-02-01T09:08:06;12.25;;;2.58;;
69900;SDS011;57183;50.930;5.406;2023-02-01T09:10:33;18.40;;;3.08;;
69900;SDS011;57183;50.930;5.406;2023-02-01T09:12:59;15.50;;;2.80;;
69900;SDS011;57183;50.930;5.406;2023-02-01T09:15:25;11.95;;;2.67;;
69900;SDS011;57183;50.930;5.406;2023-02-01T09:17:51;11.40;;;2.15;;
69900;SDS011;57183;50.930;5.406;2023-02-01T09:20:17;16.40;;;3.60;;
69900;SDS011;57183;50.930;5.406;2023-02-01T09:22:45;14.95;;;2.88;;
69900;SDS011;57183;50.930;5.406;2023-02-01T09:25:10;14.90;;;3.20;;
69900;SDS011;57183;50.930;5.406;2023-02-01T09:27:36;13.20;;;2.78;;
69900;SDS011;57183;50.930;5.406;2023-02-01T09:30:02;8.13;;;2.63;;
69900;SDS011;57183;50.930;5.406;2023-02-01T09:32:29;14.45;;;2.42;;
69900;SDS011;57183;50.930;5.406;2023-02-01T09:34:55;13.95;;;3.28;;
69900;SDS011;57183;50.930;5.406;2023-02-01T09:37:20;15.02;;;3.55;;
69900;SDS011;57183;50.930;5.406;2023-02-01T09:39:46;15.95;;;2.75;;
69900;SDS011;57183;50.930;5.406;2023-02-01T09:47:47;10.18;;;2.63;;
69900;SDS011;57183;50.930;5.406;2023-02-01T09:50:20;20.65;;;4.28;;
69900;SDS011;57183;50.930;5.406;2023-02-01T09:52:58;13.00;;;2.90;;
69900;SDS011;57183;50.930;5.406;2023-02-01T09:55:35;20.23;;;2.63;;
69900;SDS011;57183;50.930;5.406;2023-02-01T09:58:09;11.18;;;2.42;;
69900;SDS011;57183;50.930;5.406;2023-02-01T10:00:53;17.15;;;2.95;;
69900;SDS011;57183;50.930;5.406;2023-02-01T10:03:23;18.48;;;2.85;;
69900;SDS011;57183;50.930;5.406;2023-02-01T10:06:04;14.85;;;3.47;;
69900;SDS011;57183;50.930;5.406;2023-02-01T10:17:03;7.00;;;1.92;;
69900;SDS011;57183;50.930;5.406;2023-02-01T10:22:43;11.15;;;2.70;;
69900;SDS011;57183;50.930;5.406;2023-02-01T10:25:23;9.13;;;2.22;;
69900;SDS011;57183;50.930;5.406;2023-02-01T10:27:53;12.93;;;2.22;;
69900;SDS011;57183;50.930;5.406;2023-02-01T10:30:24;11.02;;;3.30;;
69900;SDS011;57183;50.930;5.406;2023-02-01T10:32:57;12.90;;;2.65;;
69900;SDS011;57183;50.930;5.406;2023-02-01T10:35:37;14.80;;;3.65;;
69900;SDS011;57183;50.930;5.406;2023-02-01T10:38:07;9.10;;;2.95;;
69900;SDS011;57183;50.930;5.406;2023-02-01T10:40:43;12.85;;;2.22;;
69900;SDS011;57183;50.930;5.406;2023-02-01T10:43:09;12.07;;;2.63;;
69900;SDS011;57183;50.930;5.406;2023-02-01T10:45:35;14.05;;;2.47;;
69900;SDS011;57183;50.930;5.406;2023-02-01T10:48:04;17.27;;;3.53;;
69900;SDS011;57183;50.930;5.406;2023-02-01T10:53:28;9.02;;;2.00;;
69900;SDS011;57183;50.930;5.406;2023-02-01T10:56:10;7.90;;;1.83;;
69900;SDS011;57183;50.930;5.406;2023-02-01T10:58:42;16.05;;;4.00;;
69900;SDS011;57183;50.930;5.406;2023-02-01T11:01:14;9.82;;;2.25;;
69900;SDS011;57183;50.930;5.406;2023-02-01T11:03:56;10.32;;;2.40;;
69900;SDS011;57183;50.930;5.406;2023-02-01T11:11:31;11.00;;;2.45;;
69900;SDS011;57183;50.930;5.406;2023-02-01T11:13:58;9.05;;;1.67;;
69900;SDS011;57183;50.930;5.406;2023-02-01T11:16:29;9.02;;;2.15;;
69900;SDS011;57183;50.930;5.406;2023-02-01T11:19:00;10.48;;;2.60;;
69900;SDS011;57183;50.930;5.406;2023-02-01T11:21:26;8.70;;;3.05;;
69900;SDS011;57183;50.930;5.406;2023-02-01T11:23:52;13.30;;;2.22;;
69900;SDS011;57183;50.930;5.406;2023-02-01T11:26:23;10.77;;;1.77;;
69900;SDS011;57183;50.930;5.406;2023-02-01T11:28:51;11.70;;;2.60;;
69900;SDS011;57183;50.930;5.406;2023-02-01T11:31:26;13.27;;;2.92;;
69900;SDS011;57183;50.930;5.406;2023-02-01T11:34:00;15.32;;;2.40;;
69900;SDS011;57183;50.930;5.406;2023-02-01T11:36:33;9.68;;;1.85;;
69900;SDS011;57183;50.930;5.406;2023-02-01T11:41:43;8.48;;;2.22;;
69900;SDS011;57183;50.930;5.406;2023-02-01T11:44:35;8.60;;;2.10;;
69900;SDS011;57183;50.930;5.406;2023-02-01T11:47:45;10.00;;;3.05;;
69900;SDS011;57183;50.930;5.406;2023-02-01T11:49:57;9.20;;;2.63;;
69900;SDS011;57183;50.930;5.406;2023-02-01T12:05:49;4.55;;;1.48;;
69900;SDS011;57183;50.930;5.406;2023-02-01T12:08:31;6.45;;;1.58;;
69900;SDS011;57183;50.930;5.406;2023-02-01T12:16:34;5.90;;;1.92;;
69900;SDS011;57183;50.930;5.406;2023-02-01T12:44:01;12.75;;;2.17;;
69900;SDS011;57183;50.930;5.406;2023-02-01T12:46:49;8.30;;;1.70;;
69900;SDS011;57183;50.930;5.406;2023-02-01T12:55:17;7.85;;;1.75;;
69900;SDS011;57183;50.930;5.406;2023-02-01T12:57:49;7.60;;;1.60;;
69900;SDS011;57183;50.930;5.406;2023-02-01T13:00:45;9.85;;;1.90;;
69900;SDS011;57183;50.930;5.406;2023-02-01T13:03:34;7.00;;;1.35;;
69900;SDS011;57183;50.930;5.406;2023-02-01T13:06:24;7.55;;;2.20;;
69900;SDS011;57183;50.930;5.406;2023-02-01T13:08:56;14.05;;;1.52;;
69900;SDS011;57183;50.930;5.406;2023-02-01T13:11:29;11.32;;;2.10;;
69900;SDS011;57183;50.930;5.406;2023-02-01T13:16:39;6.72;;;1.50;;
69900;SDS011;57183;50.930;5.406;2023-02-01T13:19:17;8.38;;;1.30;;
69900;SDS011;57183;50.930;5.406;2023-02-01T13:22:03;5.97;;;1.52;;
69900;SDS011;57183;50.930;5.406;2023-02-01T13:24:37;9.20;;;1.83;;
69900;SDS011;57183;50.930;5.406;2023-02-01T13:27:10;12.35;;;2.20;;
69900;SDS011;57183;50.930;5.406;2023-02-01T13:29:37;8.77;;;2.03;;
69900;SDS011;57183;50.930;5.406;2023-02-01T13:32:34;14.32;;;1.55;;
69900;SDS011;57183;50.930;5.406;2023-02-01T13:40:45;10.82;;;1.45;;
69900;SDS011;57183;50.930;5.406;2023-02-01T13:43:30;11.93;;;1.52;;
69900;SDS011;57183;50.930;5.406;2023-02-01T13:46:02;13.13;;;1.92;;
69900;SDS011;57183;50.930;5.406;2023-02-01T13:48:36;7.93;;;1.92;;
69900;SDS011;57183;50.930;5.406;2023-02-01T13:51:06;10.50;;;1.80;;
69900;SDS011;57183;50.930;5.406;2023-02-01T13:53:36;12.13;;;1.92;;
69900;SDS011;57183;50.930;5.406;2023-02-01T13:56:15;10.50;;;1.67;;
69900;SDS011;57183;50.930;5.406;2023-02-01T13:58:43;13.57;;;1.67;;
69900;SDS011;57183;50.930;5.406;2023-02-01T14:19:08;11.00;;;1.60;;
69900;SDS011;57183;50.930;5.406;2023-02-01T14:22:32;16.77;;;2.15;;
69900;SDS011;57183;50.930;5.406;2023-02-01T14:24:55;4.35;;;1.13;;
69900;SDS011;57183;50.930;5.406;2023-02-01T14:27:30;11.48;;;1.52;;
69900;SDS011;57183;50.930;5.406;2023-02-01T14:30:00;11.43;;;3.05;;
69900;SDS011;57183;50.930;5.406;2023-02-01T14:35:06;8.82;;;1.23;;
69900;SDS011;57183;50.930;5.406;2023-02-01T14:37:41;8.68;;;1.45;;
69900;SDS011;57183;50.930;5.406;2023-02-01T14:42:48;4.15;;;1.40;;
69900;SDS011;57183;50.930;5.406;2023-02-01T14:53:10;11.48;;;1.70;;
69900;SDS011;57183;50.930;5.406;2023-02-01T15:04:12;3.88;;;1.80;;
69900;SDS011;57183;50.930;5.406;2023-02-01T15:06:58;8.23;;;1.50;;
69900;SDS011;57183;50.930;5.406;2023-02-01T15:09:33;9.43;;;1.73;;
69900;SDS011;57183;50.930;5.406;2023-02-01T15:14:37;10.20;;;1.67;;
69900;SDS011;57183;50.930;5.406;2023-02-01T15:17:21;13.48;;;1.40;;
69900;SDS011;57183;50.930;5.406;2023-02-01T15:19:56;7.45;;;1.20;;
69900;SDS011;57183;50.930;5.406;2023-02-01T15:22:23;9.27;;;3.17;;
69900;SDS011;57183;50.930;5.406;2023-02-01T15:24:54;8.63;;;1.25;;
69900;SDS011;57183;50.930;5.406;2023-02-01T15:27:21;13.55;;;2.25;;
69900;SDS011;57183;50.930;5.406;2023-02-01T15:29:47;11.57;;;2.75;;
69900;SDS011;57183;50.930;5.406;2023-02-01T15:32:30;9.15;;;1.42;;
69900;SDS011;57183;50.930;5.406;2023-02-01T15:34:57;16.27;;;2.28;;
69900;SDS011;57183;50.930;5.406;2023-02-01T15:37:25;6.53;;;1.75;;
69900;SDS011;57183;50.930;5.406;2023-02-01T15:40:03;8.65;;;1.23;;
69900;SDS011;57183;50.930;5.406;2023-02-01T15:42:51;8.07;;;2.15;;
69900;SDS011;57183;50.930;5.406;2023-02-01T15:45:19;6.95;;;1.30;;
69900;SDS011;57183;50.930;5.406;2023-02-01T15:47:49;15.75;;;2.60;;
69900;SDS011;57183;50.930;5.406;2023-02-01T15:50:18;14.82;;;2.17;;
69900;SDS011;57183;50.930;5.406;2023-02-01T15:52:46;11.10;;;1.45;;
69900;SDS011;57183;50.930;5.406;2023-02-01T15:55:20;6.40;;;1.98;;
69900;SDS011;57183;50.930;5.406;2023-02-01T15:57:59;8.25;;;1.33;;
69900;SDS011;57183;50.930;5.406;2023-02-01T16:00:28;14.45;;;1.98;;
69900;SDS011;57183;50.930;5.406;2023-02-01T16:03:01;9.35;;;1.88;;
69900;SDS011;57183;50.930;5.406;2023-02-01T16:05:37;14.30;;;1.77;;
69900;SDS011;57183;50.930;5.406;2023-02-01T16:10:38;9.75;;;1.98;;
69900;SDS011;57183;50.930;5.406;2023-02-01T16:13:06;6.10;;;2.28;;
69900;SDS011;57183;50.930;5.406;2023-02-01T16:15:32;14.30;;;3.42;;
69900;SDS011;57183;50.930;5.406;2023-02-01T16:17:58;13.25;;;2.95;;
69900;SDS011;57183;50.930;5.406;2023-02-01T16:20:23;9.63;;;1.67;;
69900;SDS011;57183;50.930;5.406;2023-02-01T16:22:49;12.00;;;3.40;;
69900;SDS011;57183;50.930;5.406;2023-02-01T16:25:15;7.88;;;1.77;;
69900;SDS011;57183;50.930;5.406;2023-02-01T16:27:41;11.57;;;2.40;;
69900;SDS011;57183;50.930;5.406;2023-02-01T16:30:07;12.50;;;2.08;;
69900;SDS011;57183;50.930;5.406;2023-02-01T16:32:34;9.18;;;1.90;;
69900;SDS011;57183;50.930;5.406;2023-02-01T16:35:03;8.43;;;2.25;;
69900;SDS011;57183;50.930;5.406;2023-02-01T16:37:30;10.38;;;1.60;;
69900;SDS011;57183;50.930;5.406;2023-02-01T16:39:58;9.07;;;2.72;;
69900;SDS011;57183;50.930;5.406;2023-02-01T16:42:24;9.55;;;2.30;;
69900;SDS011;57183;50.930;5.406;2023-02-01T16:44:49;12.05;;;1.98;;
69900;SDS011;57183;50.930;5.406;2023-02-01T16:47:19;11.63;;;1.48;;
69900;SDS011;57183;50.930;5.406;2023-02-01T16:49:46;12.77;;;2.05;;
69900;SDS011;57183;50.930;5.406;2023-02-01T16:52:19;10.77;;;2.60;;
69900;SDS011;57183;50.930;5.406;2023-02-01T16:54:48;7.65;;;1.40;;
69900;SDS011;57183;50.930;5.406;2023-02-01T16:57:15;12.45;;;2.25;;
69900;SDS011;57183;50.930;5.406;2023-02-01T16:59:43;4.60;;;1.63;;
69900;SDS011;57183;50.930;5.406;2023-02-01T17:02:16;11.38;;;2.28;;
69900;SDS011;57183;50.930;5.406;2023-02-01T17:04:47;11.10;;;3.42;;
69900;SDS011;57183;50.930;5.406;2023-02-01T17:07:17;8.63;;;1.70;;
69900;SDS011;57183;50.930;5.406;2023-02-01T17:09:44;16.55;;;2.53;;
69900;SDS011;57183;50.930;5.406;2023-02-01T17:12:26;7.15;;;2.10;;
69900;SDS011;57183;50.930;5.406;2023-02-01T17:14:54;10.15;;;2.17;;
69900;SDS011;57183;50.930;5.406;2023-02-01T17:17:22;8.82;;;1.83;;
69900;SDS011;57183;50.930;5.406;2023-02-01T17:19:50;14.20;;;2.42;;
69900;SDS011;57183;50.930;5.406;2023-02-01T17:22:18;10.35;;;2.10;;
69900;SDS011;57183;50.930;5.406;2023-02-01T17:24:45;10.10;;;2.08;;
69900;SDS011;57183;50.930;5.406;2023-02-01T17:27:11;14.85;;;3.22;;
69900;SDS011;57183;50.930;5.406;2023-02-01T17:29:37;16.05;;;3.38;;
69900;SDS011;57183;50.930;5.406;2023-02-01T17:32:03;7.03;;;1.90;;
69900;SDS011;57183;50.930;5.406;2023-02-01T17:34:29;8.98;;;2.00;;
69900;SDS011;57183;50.930;5.406;2023-02-01T17:36:55;10.32;;;2.17;;
69900;SDS011;57183;50.930;5.406;2023-02-01T17:39:21;14.35;;;1.70;;